createdAt,value
2022-12-04T00:01:12.817Z,33.65
2022-12-04T00:05:17.310Z,27.88
2022-12-04T00:09:20.318Z,30.88
2022-12-04T00:13:23.312Z,31.00
2022-12-04T00:17:26.253Z,33.50
2022-12-04T00:21:30.664Z,29.13
2022-12-04T00:25:39.307Z,30.00
2022-12-04T00:29:44.034Z,30.80
2022-12-04T00:33:47.184Z,29.08
2022-12-04T00:37:51.542Z,31.55
2022-12-04T00:41:54.517Z,31.38
2022-12-04T00:45:57.605Z,30.98
2022-12-04T00:50:00.868Z,30.52
2022-12-04T00:54:05.504Z,27.75
2022-12-04T00:58:08.682Z,28.65
2022-12-04T01:02:11.630Z,29.42
2022-12-04T01:06:23.284Z,33.30
2022-12-04T01:10:27.661Z,28.92
2022-12-04T01:14:30.753Z,28.30
2022-12-04T01:18:33.795Z,32.63
2022-12-04T01:22:36.776Z,37.97
2022-12-04T01:26:41.199Z,29.17
2022-12-04T01:30:44.175Z,35.90
2022-12-04T01:34:47.378Z,31.55
2022-12-04T01:38:50.531Z,29.88
2022-12-04T01:42:55.165Z,25.40
2022-12-04T01:46:59.377Z,29.40
2022-12-04T01:51:08.389Z,30.23
2022-12-04T01:55:11.367Z,30.48
2022-12-04T01:59:18.619Z,29.88
2022-12-04T02:03:22.068Z,33.10
2022-12-04T02:07:25.270Z,30.25
2022-12-04T02:11:37.504Z,29.70
2022-12-04T02:15:49.416Z,27.40
2022-12-04T02:20:05.509Z,27.00
2022-12-04T02:24:28.961Z,28.45
2022-12-04T02:28:42.669Z,32.17
2022-12-04T02:32:49.657Z,28.80
2022-12-04T02:36:56.710Z,27.75
2022-12-04T02:41:04.949Z,29.65
2022-12-04T02:45:13.088Z,25.80
2022-12-04T02:49:20.415Z,26.00
2022-12-04T02:53:27.536Z,24.75
2022-12-04T02:57:37.030Z,27.88
2022-12-04T03:01:44.981Z,24.10
2022-12-04T03:05:54.735Z,28.17
2022-12-04T03:10:04.127Z,25.85
2022-12-04T03:14:15.525Z,26.65
2022-12-04T03:18:23.685Z,25.42
2022-12-04T03:22:28.703Z,25.65
2022-12-04T03:26:37.613Z,30.35
2022-12-04T03:30:45.527Z,30.35
2022-12-04T03:34:55.597Z,29.55
2022-12-04T03:39:04.592Z,30.60
2022-12-04T03:43:12.907Z,31.95
2022-12-04T03:47:21.621Z,26.95
2022-12-04T03:51:34.379Z,29.83
2022-12-04T03:55:42.625Z,33.15
2022-12-04T03:59:55.411Z,29.38
2022-12-04T04:04:01.726Z,27.23
2022-12-04T04:08:27.887Z,28.48
2022-12-04T04:12:36.662Z,29.73
2022-12-04T04:17:01.696Z,28.90
2022-12-04T04:21:22.543Z,28.52
2022-12-04T04:25:29.623Z,27.27
2022-12-04T04:29:32.877Z,28.15
2022-12-04T04:33:40.884Z,28.73
2022-12-04T04:37:54.864Z,26.25
2022-12-04T04:42:04.379Z,27.15
2022-12-04T04:46:12.498Z,25.35
2022-12-04T04:50:18.110Z,26.63
2022-12-04T04:54:22.166Z,27.77
2022-12-04T04:58:26.577Z,28.50
2022-12-04T05:02:29.986Z,22.77
2022-12-04T05:06:33.101Z,27.20
2022-12-04T05:10:36.101Z,25.13
2022-12-04T05:14:40.470Z,26.55
2022-12-04T05:19:04.390Z,25.85
2022-12-04T05:23:08.309Z,25.30
2022-12-04T05:27:11.397Z,26.00
2022-12-04T05:31:15.848Z,26.98
2022-12-04T05:35:18.971Z,23.95
2022-12-04T05:39:22.472Z,24.27
2022-12-04T05:43:25.475Z,28.35
2022-12-04T05:47:29.862Z,29.85
2022-12-04T05:51:32.824Z,22.88
2022-12-04T05:55:36.174Z,24.08
2022-12-04T05:59:39.368Z,28.13
2022-12-04T06:03:43.998Z,29.65
2022-12-04T06:07:47.178Z,24.23
2022-12-04T06:11:50.379Z,26.33
2022-12-04T06:15:53.472Z,24.75
2022-12-04T06:19:58.285Z,24.25
2022-12-04T06:24:02.133Z,26.08
2022-12-04T06:28:05.163Z,28.10
2022-12-04T06:32:08.262Z,29.02
2022-12-04T06:36:14.441Z,31.58
2022-12-04T06:40:17.484Z,25.95
2022-12-04T06:44:20.518Z,27.52
2022-12-04T06:48:23.605Z,26.25
2022-12-04T06:52:27.980Z,26.23
2022-12-04T06:56:33.595Z,25.80
2022-12-04T07:00:37.039Z,25.98
2022-12-04T07:04:40.269Z,29.73
2022-12-04T07:08:46.154Z,28.73
2022-12-04T07:12:49.117Z,25.73
2022-12-04T07:16:52.136Z,26.38
2022-12-04T07:20:55.176Z,26.58
2022-12-04T07:24:59.535Z,27.67
2022-12-04T07:29:07.662Z,29.30
2022-12-04T07:33:20.118Z,28.30
2022-12-04T07:37:27.800Z,22.58
2022-12-04T07:41:32.079Z,36.03
2022-12-04T07:45:46.574Z,26.17
2022-12-04T07:49:49.627Z,24.67
2022-12-04T07:53:54.067Z,25.27
2022-12-04T07:57:58.418Z,27.90
2022-12-04T08:02:01.461Z,24.42
2022-12-04T08:06:05.880Z,24.98
2022-12-04T08:10:10.085Z,22.83
2022-12-04T08:14:14.904Z,22.27
2022-12-04T08:18:18.025Z,22.50
2022-12-04T08:22:25.064Z,24.77
2022-12-04T08:26:30.536Z,25.73
2022-12-04T08:30:36.041Z,21.83
2022-12-04T08:34:39.081Z,24.40
2022-12-04T08:38:42.545Z,23.20
2022-12-04T08:42:45.507Z,20.42
2022-12-04T08:46:49.967Z,20.48
2022-12-04T08:50:53.379Z,23.60
2022-12-04T08:54:56.362Z,22.60
2022-12-04T08:59:01.239Z,21.35
2022-12-04T09:03:05.788Z,20.33
2022-12-04T09:07:08.764Z,22.15
2022-12-04T09:11:14.713Z,20.25
2022-12-04T09:15:18.420Z,21.10
2022-12-04T09:19:23.064Z,21.58
2022-12-04T09:23:26.830Z,19.17
2022-12-04T09:27:29.856Z,16.77
2022-12-04T09:31:34.038Z,19.55
2022-12-04T09:35:39.677Z,18.58
2022-12-04T09:39:42.669Z,20.92
2022-12-04T09:43:53.413Z,21.98
2022-12-04T09:47:59.521Z,20.08
2022-12-04T09:52:10.669Z,19.35
2022-12-04T09:56:19.913Z,21.95
2022-12-04T10:00:23.547Z,20.77
2022-12-04T10:04:26.821Z,22.52
2022-12-04T10:08:35.961Z,22.33
2022-12-04T10:12:51.450Z,20.27
2022-12-04T10:17:14.634Z,21.98
2022-12-04T10:21:33.858Z,19.92
2022-12-04T10:25:40.142Z,21.27
2022-12-04T10:29:44.801Z,20.52
2022-12-04T10:33:52.007Z,20.83
2022-12-04T10:37:58.755Z,20.52
2022-12-04T10:42:12.505Z,20.80
2022-12-04T10:46:17.815Z,21.27
2022-12-04T10:50:22.972Z,19.10
2022-12-04T10:54:32.737Z,21.15
2022-12-04T10:58:37.151Z,20.83
2022-12-04T11:02:40.832Z,20.65
2022-12-04T11:06:44.161Z,20.38
2022-12-04T11:10:47.201Z,21.67
2022-12-04T11:15:01.155Z,22.25
2022-12-04T11:19:04.622Z,21.60
2022-12-04T11:23:07.670Z,19.38
2022-12-04T11:27:20.866Z,18.23
2022-12-04T11:31:25.674Z,19.92
2022-12-04T11:35:30.965Z,15.85
2022-12-04T11:39:37.994Z,15.73
2022-12-04T11:43:51.404Z,18.20
2022-12-04T11:48:00.438Z,17.05
2022-12-04T11:52:23.580Z,20.70
2022-12-04T11:56:32.736Z,17.80
2022-12-04T12:00:40.635Z,20.85
2022-12-04T12:05:03.980Z,17.33
2022-12-04T12:09:23.662Z,17.33
2022-12-04T12:13:36.618Z,16.50
2022-12-04T12:17:47.198Z,16.88
2022-12-04T12:22:05.165Z,17.50
2022-12-04T12:26:12.284Z,18.65
2022-12-04T12:30:19.173Z,20.30
2022-12-04T12:34:36.235Z,15.23
2022-12-04T12:38:45.448Z,16.23
2022-12-04T12:42:58.202Z,16.30
2022-12-04T12:47:08.113Z,17.17
2022-12-04T12:51:30.034Z,13.90
2022-12-04T12:55:40.360Z,13.60
2022-12-04T12:59:49.354Z,13.82
2022-12-04T13:03:59.808Z,16.55
2022-12-04T13:08:15.947Z,12.27
2022-12-04T13:12:23.711Z,12.75
2022-12-04T13:16:31.196Z,11.25
2022-12-04T13:20:40.343Z,12.27
2022-12-04T13:24:55.341Z,10.85
2022-12-04T13:29:10.091Z,10.07
2022-12-04T13:34:04.463Z,10.02
2022-12-04T13:38:20.822Z,11.95
2022-12-04T13:42:27.052Z,10.18
2022-12-04T13:46:35.853Z,11.23
2022-12-04T13:50:41.557Z,10.20
2022-12-04T13:54:44.975Z,9.73
2022-12-04T13:58:47.961Z,9.80
2022-12-04T14:02:55.633Z,9.20
2022-12-04T14:07:01.639Z,9.15
2022-12-04T14:11:08.250Z,9.50
2022-12-04T14:15:23.319Z,8.63
2022-12-04T14:19:35.646Z,10.07
2022-12-04T14:23:41.303Z,10.88
2022-12-04T14:27:45.557Z,9.63
2022-12-04T14:31:48.531Z,10.30
2022-12-04T14:36:00.732Z,9.57
2022-12-04T14:40:07.305Z,11.00
2022-12-04T14:44:25.368Z,8.60
2022-12-04T14:48:41.842Z,12.70
2022-12-04T14:52:54.193Z,13.00
2022-12-04T14:57:12.901Z,12.05
2022-12-04T15:01:28.656Z,11.02
2022-12-04T15:05:34.249Z,12.10
2022-12-04T15:09:56.292Z,13.02
2022-12-04T15:14:12.714Z,11.73
2022-12-04T15:18:17.928Z,10.48
2022-12-04T15:22:24.815Z,13.85
2022-12-04T15:26:29.579Z,13.23
2022-12-04T15:30:35.598Z,13.32
2022-12-04T15:34:43.049Z,13.93
2022-12-04T15:38:47.968Z,14.70
2022-12-04T15:42:53.114Z,16.13
2022-12-04T15:46:57.782Z,12.70
2022-12-04T15:51:05.058Z,13.50
2022-12-04T15:55:10.131Z,14.07
2022-12-04T15:59:19.145Z,13.60
2022-12-04T16:03:26.575Z,13.40
2022-12-04T16:07:30.906Z,14.90
2022-12-04T16:11:37.443Z,13.98
2022-12-04T16:15:43.956Z,14.18
2022-12-04T16:19:47.259Z,13.70
2022-12-04T16:23:50.969Z,16.25
2022-12-04T16:27:53.949Z,15.40
2022-12-04T16:32:02.893Z,14.18
2022-12-04T16:36:07.288Z,15.93
2022-12-04T16:40:12.008Z,16.80
2022-12-04T16:44:16.809Z,24.40
2022-12-04T16:48:21.466Z,20.50
2022-12-04T16:52:24.524Z,17.20
2022-12-04T16:56:27.517Z,18.20
2022-12-04T17:00:30.620Z,16.85
2022-12-04T17:04:35.076Z,18.10
2022-12-04T17:08:38.134Z,17.70
2022-12-04T17:12:41.414Z,17.35
2022-12-04T17:16:46.698Z,16.65
2022-12-04T17:20:51.132Z,16.83
2022-12-04T17:24:56.217Z,18.92
2022-12-04T17:28:59.486Z,17.83
2022-12-04T17:33:02.696Z,19.42
2022-12-04T17:37:07.077Z,18.10
2022-12-04T17:41:13.685Z,20.58
2022-12-04T17:45:17.096Z,18.88
2022-12-04T17:49:20.378Z,16.80
2022-12-04T17:53:24.815Z,17.40
2022-12-04T17:57:28.767Z,19.40
2022-12-04T18:01:32.486Z,17.05
2022-12-04T18:05:35.752Z,15.93
2022-12-04T18:09:40.394Z,17.80
2022-12-04T18:13:43.751Z,18.40
2022-12-04T18:17:46.796Z,20.50
2022-12-04T18:21:50.178Z,18.52
2022-12-04T18:25:57.423Z,16.25
2022-12-04T18:30:01.578Z,15.35
2022-12-04T18:34:06.501Z,16.45
2022-12-04T18:38:13.767Z,18.40
2022-12-04T18:42:18.247Z,15.00
2022-12-04T18:46:22.401Z,16.23
2022-12-04T18:50:25.443Z,16.17
2022-12-04T18:54:28.496Z,17.98
2022-12-04T18:58:32.915Z,15.90
2022-12-04T19:02:36.107Z,17.92
2022-12-04T19:06:40.820Z,16.48
2022-12-04T19:10:43.878Z,15.63
2022-12-04T19:14:48.267Z,17.70
2022-12-04T19:18:51.371Z,16.60
2022-12-04T19:22:54.931Z,17.20
2022-12-04T19:26:57.925Z,15.65
2022-12-04T19:31:02.257Z,15.60
2022-12-04T19:35:05.779Z,16.30
2022-12-04T19:39:09.705Z,16.83
2022-12-04T19:43:13.944Z,17.08
2022-12-04T19:47:19.360Z,17.50
2022-12-04T19:51:22.919Z,17.58
2022-12-04T19:55:25.905Z,18.45
2022-12-04T19:59:34.613Z,19.67
2022-12-04T20:03:41.646Z,13.32
2022-12-04T20:07:44.658Z,17.25
2022-12-04T20:11:48.029Z,15.57
2022-12-04T20:15:51.337Z,17.52
2022-12-04T20:19:56.380Z,18.23
2022-12-04T20:24:02.216Z,16.48
2022-12-04T20:28:08.990Z,20.10
2022-12-04T20:32:14.398Z,16.77
2022-12-04T20:36:21.298Z,18.20
2022-12-04T20:40:24.623Z,16.88
2022-12-04T20:44:27.821Z,19.80
2022-12-04T20:48:30.729Z,18.60
2022-12-04T20:52:35.241Z,17.90
2022-12-04T20:56:39.459Z,19.90
2022-12-04T21:00:42.559Z,18.00
2022-12-04T21:04:45.675Z,17.05
2022-12-04T21:08:55.802Z,17.08
2022-12-04T21:13:16.729Z,19.13
2022-12-04T21:17:21.193Z,17.60
2022-12-04T21:21:24.377Z,16.98
2022-12-04T21:25:28.687Z,15.38
2022-12-04T21:29:33.174Z,19.55
2022-12-04T21:33:40.948Z,14.98
2022-12-04T21:37:44.355Z,14.68
2022-12-04T21:42:06.655Z,16.02
2022-12-04T21:46:10.323Z,16.05
2022-12-04T21:50:13.294Z,13.27
2022-12-04T21:54:16.194Z,12.00
2022-12-04T21:58:21.399Z,13.45
2022-12-04T22:02:25.690Z,13.48
2022-12-04T22:06:28.853Z,13.07
2022-12-04T22:10:31.787Z,11.73
2022-12-04T22:14:36.257Z,14.88
2022-12-04T22:18:39.841Z,14.68
2022-12-04T22:22:42.810Z,12.02
2022-12-04T22:26:45.745Z,14.02
2022-12-04T22:30:50.132Z,14.85
2022-12-04T22:34:53.093Z,16.35
2022-12-04T22:39:09.510Z,14.27
2022-12-04T22:43:13.288Z,13.82
2022-12-04T22:47:17.637Z,13.80
2022-12-04T22:51:22.182Z,12.82
2022-12-04T22:55:25.435Z,16.35
2022-12-04T22:59:28.586Z,15.25
2022-12-04T23:03:33.009Z,13.25
2022-12-04T23:07:36.858Z,14.73
2022-12-04T23:11:40.915Z,14.68
2022-12-04T23:15:43.902Z,14.35
2022-12-04T23:19:48.389Z,16.10
2022-12-04T23:23:53.830Z,15.23
2022-12-04T23:27:56.714Z,14.57
2022-12-04T23:31:59.698Z,15.85
2022-12-04T23:36:06.219Z,15.00
2022-12-04T23:40:10.148Z,14.30
2022-12-04T23:44:13.055Z,15.27
2022-12-04T23:48:15.950Z,16.83
2022-12-04T23:52:20.402Z,16.77
2022-12-04T23:56:25.045Z,15.25
